Sunday, December 16, 2018, 5:29 AM EST
Back to Local

KLBE, Latrobe / Westmorland

Location: Latrobe, PA, United States Lat: 40.283
Local Time: 5:29 AM EST (10:29 GMT) Lon: -79.4
Time Zone: US/Eastern Elev: 1184 ft

Show me the last for .
Show Coded

Time T Td Feel RH Dir Speed Gust Alt SLP Vis Weather Sky Remarks
2018-12-16 05:15 41 41 36 100 20° 7 - 29.90 - 10 SCT019 OVC025 None
2018-12-16 04:55 41 41 36 100 10° 8 - 29.91 - 9 OVC019 None
2018-12-16 04:35 41 41 36 100 20° 7 - 29.91 - 10 BKN017 OVC022 None
2018-12-16 04:15 41 41 36 100 20° 7 - 29.91 - 10 BKN015 OVC023 None
2018-12-16 03:55 41 41 36 100 10° 7 - 29.91 - 7 BKN015 OVC021 None
2018-12-16 03:35 41 41 36 100 10° 7 - 29.91 - 5 -RA BKN016 OVC021 None
2018-12-16 03:15 41 41 37 100 10° 6 - 29.92 - 5 BR BKN015 OVC020 None
2018-12-16 02:55 41 41 35 100 20° 9 - 29.92 - 5 -RA OVC018 None
2018-12-16 02:35 41 41 35 100 20° 10 - 29.92 - 5 -RA BKN015 OVC021 None
2018-12-16 02:15 41 41 35 100 10° 9 - 29.92 - 4 -RA BKN015 OVC020 None
2018-12-16 01:55 41 41 36 100 10° 8 - 29.92 - 6 BR OVC016 None
2018-12-16 01:35 43 43 39 100 30° 7 - 29.92 - 6 BR OVC016 None
2018-12-16 01:15 43 43 38 100 10° 8 - 29.92 - 5 -RA BKN016 OVC020 None
2018-12-16 00:55 43 43 37 100 10° 9 - 29.92 - 5 -RA BKN015 OVC022 None
2018-12-16 00:35 43 43 37 100 20° 9 - 29.92 - 6 -RA OVC016 None
2018-12-16 00:15 43 43 38 100 40° 8 - 29.92 - 5 -RA OVC016 None
2018-12-15 23:55 45 43 38 93 10° 13 - 29.92 - 8 -DZ OVC016 None
2018-12-15 23:35 45 45 39 100 10° 12 - 29.92 - 9 -RA OVC014 None
2018-12-15 23:15 45 45 36 100 20° 13 21 29.93 - 6 -DZ OVC014 None
2018-12-15 22:55 45 45 38 100 10° 13 - 29.94 - 9 OVC015 None
2018-12-15 22:35 45 45 39 100 20° 12 - 29.95 - 10 OVC016 None
2018-12-15 22:15 46 45 39 93 20° 12 20 29.95 - 9 -DZ OVC016 None
2018-12-15 21:50 46 46 39 100 40° 17 - 29.96 - 8 OVC016 None
2018-12-15 20:50 46 46 38 100 50° 12 23 29.96 - 8 OVC019 None
2018-12-15 19:50 46 46 40 100 50° 16 - 29.98 - 8 BKN018 None
2018-12-15 18:50 46 46 38 100 30° 12 23 29.99 - 4 -RA BKN012 None
2018-12-15 17:50 48 48 40 100 40° 14 25 29.99 - 8 BKN018 None
2018-12-15 16:50 48 48 43 100 30° 12 - 29.98 - 8 SCT016 BKN037 None
2018-12-15 15:50 50 50 46 100 20° 12 - 29.98 - 6 -RA SCT015 BKN060 None
2018-12-15 14:45 50 50 46 100 40° 9 - 29.98 - 10 BKN040 OVC050 None
2018-12-15 13:45 48 48 40 100 80° 17 25 29.98 - 10 FEW045 OVC075 None
2018-12-15 12:45 48 48 43 100 60° 13 - 30.02 - 6 -RA SCT039 OVC075 None
2018-12-15 11:50 46 46 44 100 30° 6 - 30.06 - 4 -RA SCT010 BKN040 OVC075 None
2018-12-15 10:53 45 45 41 100 40° 6 - 30.08 - 5 -RA BKN006 OVC048 None
2018-12-15 09:53 45 45 40 100 20° 8 - 30.08 - 8 FEW004 OVC060 None
2018-12-15 08:53 46 46 41 100 30° 10 - 30.06 - 8 FEW003 OVC070 None
2018-12-15 07:53 46 46 44 100 10° 6 - 30.04 - 5 -DZ FEW050 OVC070 None
2018-12-15 06:53 45 45 41 100 10° 6 - 30.04 - 0 -RA SCT012 BKN034 None
2018-12-15 05:55 45 45 41 100 360° 6 - 30.07 - 2 -RA BKN002 BKN023 OVC055 None
2018-12-15 05:35 45 46 41 107 20° 6 - 30.07 - 2 -RA FEW023 BKN046 OVC055 None

Support USWX by starting your Amazon purchase here.